TRA27L EHEH-LPPT
Flight info
| Callsign | TRA27L |
|---|---|
| Flight time | N/A |
| Altitude | 33000 |
| Route | WOODY N872 CIV DCT MEDIL DCT KOVIN/N0442F350 DCT NIDUV DCT KIHVI DCT PON DCT DITAL DCT GODIX DCT DIDAK DCT KURIS DCT TERPO DCT ERIGA DCT FUJTI DCT PEPET DCT BAKUP DCT BATAX DCT INBOM |
| Aircraft | B738/M-SDE2E3FGHIRWXY/LB1 |
Departure
| Time | 2026-04-30 13:49 |
|---|---|
| Airport | Eindhoven Airport (EHEH) |
Arrival
| Time | N/A |
|---|---|
| Airport | Lisbon Humberto Delgado Airport (LPPT) |
| Time | Latitude | Longitude | Altitude | Speed | Heading |
|---|---|---|---|---|---|
| 2026-04-30 12:36 | 51.45720 | 5.38895 | 66 ft | 0 kts | 125° |
| 2026-04-30 13:37 | 51.45736 | 5.38861 | 94 ft | 4 kts | 126° |
| 2026-04-30 13:38 | 51.45752 | 5.38808 | 69 ft | 4 kts | 82° |
| 2026-04-30 13:38 | 51.45740 | 5.38776 | 63 ft | 4 kts | 36° |
| 2026-04-30 13:38 | 51.45730 | 5.38765 | 74 ft | 1 kts | 35° |
| 2026-04-30 13:41 | 51.45732 | 5.38766 | 74 ft | 1 kts | 35° |
| 2026-04-30 13:42 | 51.45754 | 5.38789 | 74 ft | 6 kts | 26° |
| 2026-04-30 13:42 | 51.45804 | 5.38751 | 70 ft | 11 kts | 306° |
| 2026-04-30 13:42 | 51.45914 | 5.38502 | 76 ft | 14 kts | 306° |
| 2026-04-30 13:43 | 51.45977 | 5.38365 | 75 ft | 17 kts | 306° |
| 2026-04-30 13:43 | 51.45945 | 5.38216 | 69 ft | 17 kts | 214° |
| 2026-04-30 13:43 | 51.45849 | 5.38112 | 72 ft | 17 kts | 215° |
| 2026-04-30 13:43 | 51.45746 | 5.37991 | 72 ft | 20 kts | 216° |
| 2026-04-30 13:44 | 51.45626 | 5.37858 | 71 ft | 22 kts | 213° |
| 2026-04-30 13:44 | 51.45500 | 5.37716 | 72 ft | 22 kts | 215° |
| 2026-04-30 13:44 | 51.45374 | 5.37576 | 68 ft | 22 kts | 214° |
| 2026-04-30 13:44 | 51.45253 | 5.37440 | 69 ft | 21 kts | 214° |
| 2026-04-30 13:45 | 51.45007 | 5.37163 | 74 ft | 23 kts | 218° |
| 2026-04-30 13:45 | 51.44871 | 5.37012 | 67 ft | 25 kts | 214° |
| 2026-04-30 13:45 | 51.44731 | 5.36856 | 71 ft | 24 kts | 214° |
| 2026-04-30 13:46 | 51.44599 | 5.36707 | 67 ft | 23 kts | 216° |
| 2026-04-30 13:46 | 51.44470 | 5.36565 | 66 ft | 22 kts | 214° |
| 2026-04-30 13:46 | 51.44347 | 5.36426 | 72 ft | 21 kts | 215° |
| 2026-04-30 13:46 | 51.44226 | 5.36290 | 66 ft | 21 kts | 215° |
| 2026-04-30 13:47 | 51.44109 | 5.36159 | 64 ft | 20 kts | 215° |
| 2026-04-30 13:47 | 51.44014 | 5.36067 | 66 ft | 11 kts | 186° |
| 2026-04-30 13:47 | 51.43958 | 5.36141 | 67 ft | 11 kts | 124° |
| 2026-04-30 13:47 | 51.43924 | 5.36223 | 73 ft | 3 kts | 93° |
| 2026-04-30 13:48 | 51.43944 | 5.36254 | 70 ft | 7 kts | 37° |
| 2026-04-30 13:48 | 51.44112 | 5.36444 | 74 ft | 61 kts | 35° |
| 2026-04-30 13:48 | 51.44639 | 5.37035 | 75 ft | 122 kts | 36° |
| 2026-04-30 13:48 | 51.45463 | 5.37967 | 89 ft | 170 kts | 42° |
| 2026-04-30 13:49 | 51.46448 | 5.39037 | 681 ft | 169 kts | 40° |
| 2026-04-30 13:49 | 51.47414 | 5.40124 | 1425 ft | 166 kts | 41° |
| 2026-04-30 13:49 | 51.48365 | 5.41198 | 2097 ft | 175 kts | 43° |
| 2026-04-30 13:49 | 51.49428 | 5.42417 | 2549 ft | 196 kts | 41° |
| 2026-04-30 13:50 | 51.50627 | 5.43728 | 2825 ft | 218 kts | 33° |
| 2026-04-30 13:50 | 51.53737 | 5.43435 | 3928 ft | 253 kts | 329° |
| 2026-04-30 13:50 | 51.54940 | 5.41325 | 4499 ft | 264 kts | 295° |
| 2026-04-30 13:51 | 51.55327 | 5.38467 | 5119 ft | 261 kts | 258° |
| 2026-04-30 13:51 | 51.54813 | 5.35749 | 5939 ft | 251 kts | 239° |
| 2026-04-30 13:51 | 51.54088 | 5.33212 | 6619 ft | 255 kts | 240° |
| 2026-04-30 13:51 | 51.53350 | 5.30614 | 7320 ft | 256 kts | 240° |
| 2026-04-30 13:52 | 51.52619 | 5.27978 | 7989 ft | 260 kts | 241° |
| 2026-04-30 13:52 | 51.51890 | 5.25304 | 8679 ft | 263 kts | 242° |
| 2026-04-30 13:52 | 51.51170 | 5.22572 | 9299 ft | 272 kts | 247° |
| 2026-04-30 13:52 | 51.50673 | 5.19494 | 9537 ft | 298 kts | 255° |
| 2026-04-30 13:53 | 51.50291 | 5.16128 | 10013 ft | 311 kts | 257° |
| 2026-04-30 13:53 | 51.49928 | 5.12680 | 10631 ft | 318 kts | 258° |
| 2026-04-30 13:53 | 51.49536 | 5.09063 | 10817 ft | 341 kts | 257° |
| 2026-04-30 13:53 | 51.49106 | 5.05251 | 10979 ft | 362 kts | 257° |
| 2026-04-30 13:54 | 51.48634 | 5.01189 | 11349 ft | 375 kts | 257° |
| 2026-04-30 13:54 | 51.48144 | 4.97059 | 11998 ft | 379 kts | 257° |
| 2026-04-30 13:54 | 51.47642 | 4.92897 | 12719 ft | 380 kts | 257° |
| 2026-04-30 13:54 | 51.47131 | 4.88703 | 13363 ft | 385 kts | 257° |
| 2026-04-30 13:55 | 51.46610 | 4.84460 | 14019 ft | 389 kts | 257° |
| 2026-04-30 13:55 | 51.46089 | 4.80245 | 14646 ft | 391 kts | 257° |
| 2026-04-30 13:55 | 51.45557 | 4.75952 | 15276 ft | 392 kts | 257° |
| 2026-04-30 13:55 | 51.45022 | 4.71647 | 15909 ft | 395 kts | 257° |
| 2026-04-30 13:56 | 51.44479 | 4.67299 | 16438 ft | 400 kts | 256° |
| 2026-04-30 13:56 | 51.43926 | 4.62885 | 17012 ft | 403 kts | 257° |
| 2026-04-30 13:56 | 51.43373 | 4.58479 | 17652 ft | 404 kts | 257° |
| 2026-04-30 13:56 | 51.42814 | 4.54038 | 18220 ft | 408 kts | 257° |
| 2026-04-30 13:57 | 51.42248 | 4.49558 | 18718 ft | 412 kts | 256° |
| 2026-04-30 13:57 | 51.41682 | 4.45094 | 19204 ft | 415 kts | 256° |
| 2026-04-30 13:57 | 51.40939 | 4.40629 | 19730 ft | 413 kts | 243° |
| 2026-04-30 13:57 | 51.39369 | 4.36809 | 20199 ft | 410 kts | 224° |
| 2026-04-30 13:58 | 51.37181 | 4.33940 | 20638 ft | 407 kts | 207° |
| 2026-04-30 13:58 | 51.32024 | 4.30114 | 21544 ft | 411 kts | 201° |
| 2026-04-30 13:58 | 51.29399 | 4.28224 | 21973 ft | 415 kts | 201° |
| 2026-04-30 13:59 | 51.26810 | 4.26273 | 22405 ft | 419 kts | 202° |
| 2026-04-30 13:59 | 51.24172 | 4.24248 | 22841 ft | 422 kts | 203° |
| 2026-04-30 13:59 | 51.21516 | 4.22211 | 23252 ft | 425 kts | 202° |
| 2026-04-30 13:59 | 51.18869 | 4.20197 | 23646 ft | 429 kts | 202° |
| 2026-04-30 14:00 | 51.16163 | 4.18175 | 24039 ft | 431 kts | 200° |
| 2026-04-30 14:00 | 51.10525 | 4.14944 | 24806 ft | 432 kts | 195° |
| 2026-04-30 14:00 | 51.07662 | 4.13455 | 25166 ft | 434 kts | 195° |
| 2026-04-30 14:01 | 51.04788 | 4.11949 | 25531 ft | 436 kts | 195° |
| 2026-04-30 14:01 | 51.01902 | 4.10410 | 25862 ft | 438 kts | 195° |
| 2026-04-30 14:01 | 50.99034 | 4.08860 | 26203 ft | 440 kts | 196° |
| 2026-04-30 14:01 | 50.96134 | 4.07281 | 26543 ft | 442 kts | 196° |
| 2026-04-30 14:02 | 50.93223 | 4.05693 | 26873 ft | 443 kts | 196° |
| 2026-04-30 14:02 | 50.90310 | 4.04109 | 27197 ft | 445 kts | 196° |
| 2026-04-30 14:02 | 50.87371 | 4.02499 | 27507 ft | 447 kts | 197° |
| 2026-04-30 14:02 | 50.84452 | 4.00727 | 27821 ft | 450 kts | 199° |
| 2026-04-30 14:03 | 50.81542 | 3.98844 | 28127 ft | 452 kts | 199° |
| 2026-04-30 14:03 | 50.78634 | 3.96930 | 28424 ft | 454 kts | 200° |
| 2026-04-30 14:03 | 50.75739 | 3.95032 | 28756 ft | 454 kts | 199° |
| 2026-04-30 14:03 | 50.72831 | 3.93144 | 29201 ft | 452 kts | 199° |
| 2026-04-30 14:04 | 50.69909 | 3.91265 | 29678 ft | 449 kts | 199° |
| 2026-04-30 14:04 | 50.67014 | 3.89415 | 30115 ft | 448 kts | 199° |
| 2026-04-30 14:04 | 50.64121 | 3.87573 | 30448 ft | 448 kts | 199° |
| 2026-04-30 14:04 | 50.61231 | 3.85736 | 30756 ft | 447 kts | 199° |
| 2026-04-30 14:05 | 50.58351 | 3.83906 | 31114 ft | 446 kts | 199° |
| 2026-04-30 14:05 | 50.55480 | 3.82049 | 31438 ft | 445 kts | 200° |
| 2026-04-30 14:05 | 50.52669 | 3.80141 | 31716 ft | 446 kts | 200° |
| 2026-04-30 14:05 | 50.49831 | 3.78180 | 32025 ft | 445 kts | 200° |
| 2026-04-30 14:06 | 50.46996 | 3.76219 | 32360 ft | 444 kts | 200° |
| 2026-04-30 14:06 | 50.41353 | 3.72354 | 32974 ft | 441 kts | 200° |
| 2026-04-30 14:07 | 50.35697 | 3.68517 | 33213 ft | 446 kts | 200° |
| 2026-04-30 14:07 | 50.32832 | 3.66578 | 33225 ft | 450 kts | 200° |
| 2026-04-30 14:08 | 50.24131 | 3.60704 | 33219 ft | 459 kts | 200° |
| 2026-04-30 14:08 | 50.15315 | 3.54766 | 33218 ft | 460 kts | 200° |
| 2026-04-30 14:09 | 50.09436 | 3.50819 | 33210 ft | 460 kts | 200° |
| 2026-04-30 14:10 | 50.00659 | 3.44948 | 33203 ft | 458 kts | 200° |
| 2026-04-30 14:10 | 49.94813 | 3.41051 | 33202 ft | 456 kts | 200° |
| 2026-04-30 14:11 | 49.88983 | 3.37175 | 33213 ft | 455 kts | 200° |
| 2026-04-30 14:11 | 49.83168 | 3.33319 | 33199 ft | 454 kts | 200° |
| 2026-04-30 14:12 | 49.77395 | 3.29501 | 33191 ft | 453 kts | 200° |
| 2026-04-30 14:12 | 49.71589 | 3.25671 | 33197 ft | 452 kts | 200° |
| 2026-04-30 14:13 | 49.65794 | 3.21858 | 33190 ft | 452 kts | 200° |
| 2026-04-30 14:13 | 49.60008 | 3.18061 | 33185 ft | 452 kts | 200° |
| 2026-04-30 14:14 | 49.54200 | 3.14258 | 33186 ft | 453 kts | 200° |
| 2026-04-30 14:14 | 49.48782 | 3.09277 | 33205 ft | 463 kts | 220° |
| 2026-04-30 14:14 | 49.46628 | 3.05549 | 33314 ft | 471 kts | 232° |
| 2026-04-30 14:15 | 49.44949 | 3.01269 | 33535 ft | 473 kts | 238° |
| 2026-04-30 14:15 | 49.43363 | 2.96841 | 33851 ft | 471 kts | 238° |
| 2026-04-30 14:15 | 49.41791 | 2.92435 | 34146 ft | 470 kts | 238° |
| 2026-04-30 14:15 | 49.40190 | 2.88028 | 34336 ft | 470 kts | 238° |
| 2026-04-30 14:16 | 49.38575 | 2.83663 | 34531 ft | 470 kts | 237° |
| 2026-04-30 14:16 | 49.36944 | 2.79304 | 34759 ft | 468 kts | 237° |
| 2026-04-30 14:16 | 49.35319 | 2.74978 | 34986 ft | 467 kts | 237° |
| 2026-04-30 14:16 | 49.33727 | 2.70709 | 35166 ft | 467 kts | 238° |
| 2026-04-30 14:17 | 49.32156 | 2.66314 | 35151 ft | 470 kts | 239° |
| 2026-04-30 14:17 | 49.29080 | 2.57476 | 35146 ft | 468 kts | 239° |
| 2026-04-30 14:18 | 49.26029 | 2.48766 | 35157 ft | 463 kts | 239° |
| 2026-04-30 14:18 | 49.21436 | 2.35816 | 35135 ft | 458 kts | 239° |
| 2026-04-30 14:19 | 49.16808 | 2.23047 | 35147 ft | 461 kts | 238° |
| 2026-04-30 14:20 | 49.13623 | 2.14468 | 35138 ft | 464 kts | 238° |
| 2026-04-30 14:20 | 49.08944 | 2.01635 | 35124 ft | 462 kts | 241° |
| 2026-04-30 14:21 | 49.06240 | 1.92733 | 35135 ft | 461 kts | 243° |
| 2026-04-30 14:22 | 49.02313 | 1.79410 | 35133 ft | 459 kts | 243° |
| 2026-04-30 14:22 | 48.98326 | 1.66181 | 35127 ft | 458 kts | 243° |
| 2026-04-30 14:23 | 48.92969 | 1.48606 | 35128 ft | 457 kts | 243° |
| 2026-04-30 14:24 | 48.88948 | 1.35489 | 35124 ft | 457 kts | 242° |
| 2026-04-30 14:25 | 48.83561 | 1.18020 | 35122 ft | 458 kts | 242° |
| 2026-04-30 14:26 | 48.79485 | 1.04881 | 35116 ft | 458 kts | 242° |
| 2026-04-30 14:27 | 48.75402 | 0.91783 | 35104 ft | 458 kts | 242° |
| 2026-04-30 14:27 | 48.72420 | 0.83308 | 35104 ft | 456 kts | 236° |
| 2026-04-30 14:28 | 48.67919 | 0.72447 | 35096 ft | 456 kts | 235° |
| 2026-04-30 14:28 | 48.64009 | 0.62989 | 35093 ft | 455 kts | 236° |
| 2026-04-30 14:29 | 48.57911 | 0.48053 | 35088 ft | 454 kts | 236° |
| 2026-04-30 14:31 | 48.49618 | 0.27840 | 35083 ft | 453 kts | 236° |
| 2026-04-30 14:31 | 48.44629 | 0.15757 | 35062 ft | 452 kts | 236° |
| 2026-04-30 14:32 | 48.39652 | 0.03756 | 35070 ft | 451 kts | 236° |
| 2026-04-30 14:33 | 48.36312 | -0.04258 | 35062 ft | 451 kts | 235° |
| 2026-04-30 14:33 | 48.30736 | -0.15580 | 35058 ft | 450 kts | 230° |
| 2026-04-30 14:34 | 48.26953 | -0.23068 | 35066 ft | 450 kts | 231° |
| 2026-04-30 14:34 | 48.23183 | -0.30567 | 35069 ft | 450 kts | 231° |
| 2026-04-30 14:35 | 48.17475 | -0.41716 | 35063 ft | 450 kts | 230° |
| 2026-04-30 14:36 | 48.13647 | -0.49173 | 35074 ft | 451 kts | 230° |
| 2026-04-30 14:36 | 48.09842 | -0.56577 | 35082 ft | 451 kts | 230° |
| 2026-04-30 14:37 | 48.06008 | -0.64021 | 35087 ft | 451 kts | 230° |
| 2026-04-30 14:37 | 48.02165 | -0.71462 | 35080 ft | 452 kts | 230° |
| 2026-04-30 14:38 | 47.98333 | -0.78862 | 35081 ft | 452 kts | 230° |
| 2026-04-30 14:38 | 47.94478 | -0.86284 | 35080 ft | 452 kts | 230° |
| 2026-04-30 14:39 | 47.90628 | -0.93678 | 35075 ft | 452 kts | 230° |
| 2026-04-30 14:39 | 47.86754 | -1.01096 | 35061 ft | 452 kts | 230° |
| 2026-04-30 14:40 | 47.80943 | -1.12189 | 35061 ft | 452 kts | 230° |
| 2026-04-30 14:40 | 47.77089 | -1.19520 | 35068 ft | 452 kts | 230° |
| 2026-04-30 14:41 | 47.73203 | -1.26891 | 35053 ft | 451 kts | 230° |
| 2026-04-30 14:41 | 47.69343 | -1.34195 | 35054 ft | 450 kts | 230° |
| 2026-04-30 14:42 | 47.65466 | -1.41514 | 35056 ft | 449 kts | 230° |
| 2026-04-30 14:42 | 47.61629 | -1.48738 | 35049 ft | 447 kts | 230° |
| 2026-04-30 14:43 | 47.57669 | -1.55837 | 35057 ft | 445 kts | 226° |
| 2026-04-30 14:43 | 47.53490 | -1.62624 | 35064 ft | 444 kts | 225° |
| 2026-04-30 14:44 | 47.49341 | -1.69333 | 35062 ft | 444 kts | 226° |
| 2026-04-30 14:44 | 47.45178 | -1.76131 | 35066 ft | 445 kts | 226° |
| 2026-04-30 14:45 | 47.41021 | -1.82929 | 35071 ft | 446 kts | 226° |
| 2026-04-30 14:45 | 47.36863 | -1.89706 | 35078 ft | 448 kts | 226° |
| 2026-04-30 14:46 | 47.32114 | -1.95605 | 35074 ft | 446 kts | 209° |
| 2026-04-30 14:46 | 47.26792 | -2.00268 | 35072 ft | 448 kts | 208° |
| 2026-04-30 14:47 | 47.21413 | -2.04974 | 35077 ft | 450 kts | 209° |
| 2026-04-30 14:47 | 47.16038 | -2.09736 | 35085 ft | 451 kts | 209° |
| 2026-04-30 14:48 | 47.10736 | -2.14452 | 35048 ft | 442 kts | 209° |
| 2026-04-30 14:48 | 47.05483 | -2.19113 | 35063 ft | 440 kts | 209° |
| 2026-04-30 14:49 | 47.00260 | -2.23734 | 35067 ft | 441 kts | 209° |
| 2026-04-30 14:49 | 46.94984 | -2.28391 | 35068 ft | 442 kts | 209° |
| 2026-04-30 14:50 | 46.87060 | -2.35367 | 35070 ft | 443 kts | 209° |
| 2026-04-30 14:51 | 46.79131 | -2.42327 | 35070 ft | 445 kts | 209° |
| 2026-04-30 14:52 | 46.71154 | -2.49312 | 35072 ft | 446 kts | 210° |
| 2026-04-30 14:52 | 46.63188 | -2.56266 | 35073 ft | 447 kts | 210° |
| 2026-04-30 14:53 | 46.55197 | -2.63217 | 35068 ft | 446 kts | 210° |
| 2026-04-30 14:54 | 46.44526 | -2.72461 | 35076 ft | 445 kts | 211° |
| 2026-04-30 14:55 | 46.36555 | -2.79339 | 35073 ft | 445 kts | 211° |
| 2026-04-30 14:56 | 46.25902 | -2.88496 | 35080 ft | 445 kts | 212° |
| 2026-04-30 14:57 | 46.17923 | -2.95314 | 35077 ft | 446 kts | 212° |
| 2026-04-30 14:58 | 46.07190 | -3.04453 | 35080 ft | 448 kts | 212° |
| 2026-04-30 14:58 | 45.99134 | -3.11287 | 35082 ft | 449 kts | 212° |
| 2026-04-30 15:00 | 45.85620 | -3.22701 | 35084 ft | 452 kts | 212° |
| 2026-04-30 15:01 | 45.74802 | -3.31790 | 35092 ft | 453 kts | 212° |
| 2026-04-30 15:01 | 45.66597 | -3.38656 | 35083 ft | 457 kts | 212° |
| 2026-04-30 15:02 | 45.61134 | -3.43215 | 35079 ft | 455 kts | 212° |
| 2026-04-30 15:03 | 45.47547 | -3.54506 | 35082 ft | 447 kts | 212° |
| 2026-04-30 15:04 | 45.34204 | -3.65535 | 35087 ft | 440 kts | 212° |
| 2026-04-30 15:06 | 45.21042 | -3.76357 | 35086 ft | 437 kts | 213° |
| 2026-04-30 15:07 | 45.10499 | -3.84985 | 35089 ft | 439 kts | 213° |
| 2026-04-30 15:08 | 44.99965 | -3.93885 | 35086 ft | 441 kts | 214° |
| 2026-04-30 15:09 | 44.86849 | -4.05138 | 35085 ft | 442 kts | 214° |
| 2026-04-30 15:10 | 44.76347 | -4.14067 | 35086 ft | 441 kts | 214° |
| 2026-04-30 15:11 | 44.60650 | -4.27343 | 35082 ft | 438 kts | 214° |
| 2026-04-30 15:13 | 44.47579 | -4.38337 | 35092 ft | 437 kts | 214° |
| 2026-04-30 15:14 | 44.29424 | -4.53646 | 35094 ft | 436 kts | 215° |
| 2026-04-30 15:17 | 44.06932 | -4.72582 | 35091 ft | 434 kts | 214° |
| 2026-04-30 15:19 | 43.86342 | -4.89761 | 35091 ft | 430 kts | 214° |